Time;durP1;ratioP1;P1;durP2;ratioP2;P2;SDS_P1;SDS_P2;PMS_P1;PMS_P2;Temp;Humidity;BMP_temperature;BMP_pressure;BME280_temperature;BME280_humidity;BME280_pressure;Samples;Min_cycle;Max_cycle;Signal;HPM_P1;HPM_P2
2022/02/24 00:02:30;;;;;;;;;;;;;;;;;;2210070;67;1234;-69
2022/02/24 00:05:06;;;;;;;;;;;;;;;;;;2209829;59;1931;-70
2022/02/24 00:07:39;;;;;;;;;;;;;;;;;;2209733;67;1333;-69
2022/02/24 00:10:13;;;;;;;;;;;;;;;;;;2209897;59;1257;-69
2022/02/24 00:12:47;;;;;;;;;;;;;;;;;;2209362;59;1593;-69
2022/02/24 00:15:20;;;;;;;;;;;;;;;;;;2210084;59;1376;-70
2022/02/24 00:17:53;;;;;;;;;;;;;;;;;;2209786;59;1722;-69
2022/02/24 00:20:29;;;;;;;;;;;;;;;;;;2209709;59;1176;-69
2022/02/24 00:23:02;;;;;;;;;;;;;;;;;;2210212;59;1472;-69
2022/02/24 00:25:35;;;;;;;;;;;;;;;;;;2209737;59;1987;-69
2022/02/24 00:28:08;;;;;;;;;;;;;;;;;;2209802;67;1091;-69
2022/02/24 00:30:41;;;;;;;;;;;;;;;;;;2209431;59;1515;-69
2022/02/24 00:33:14;;;;;;;;;;;;;;;;;;2210209;59;1076;-69
2022/02/24 00:35:50;;;;;;;;;;;;;;;;;;2209695;59;1808;-69
2022/02/24 00:38:23;;;;;;;;;;;;;;;;;;2209216;59;1260;-69
2022/02/24 00:40:57;;;;;;;;;;;;;;;;;;2209811;67;1121;-69
2022/02/24 00:43:30;;;;;;;;;;;;;;;;;;2209945;59;1850;-69
2022/02/24 00:46:03;;;;;;;;;;;;;;;;;;2210042;59;1926;-69
2022/02/24 00:48:36;;;;;;;;;;;;;;;;;;2209885;59;1702;-69
2022/02/24 00:51:12;;;;;;;;;;;;;;;;;;2210222;59;1124;-69
2022/02/24 00:53:45;;;;;;;;;;;;;;;;;;2210008;59;1402;-69
2022/02/24 00:56:18;;;;;;;;;;;;;;;;;;2209548;59;1638;-69
2022/02/24 00:58:51;;;;;;;;;;;;;;;;;;2209959;67;1107;-69
2022/02/24 01:01:25;;;;;;;;;;;;;;;;;;2209682;59;1211;-69
2022/02/24 01:03:58;;;;;;;;;;;;;;;;;;2210274;59;1129;-69
2022/02/24 01:06:34;;;;;;;;;;;;;;;;;;2210420;67;1984;-69
2022/02/24 01:09:07;;;;;;;;;;;;;;;;;;2210469;59;1377;-69
2022/02/24 01:11:40;;;;;;;;;;;;;;;;;;2209965;59;1309;-69
2022/02/24 01:14:13;;;;;;;;;;;;;;;;;;2209906;59;1144;-69
2022/02/24 01:16:46;;;;;;;;;;;;;;;;;;2209832;53;3562;-69
2022/02/24 01:19:19;;;;;;;;;;;;;;;;;;2205175;59;1528;-69
2022/02/24 01:21:55;;;;;;;;;;;;;;;;;;2206340;59;1221;-69
2022/02/24 01:24:28;;;;;;;;;;;;;;;;;;2206758;59;1930;-69
2022/02/24 01:27:02;;;;;;;;;;;;;;;;;;2206509;59;1250;-69
2022/02/24 01:29:35;;;;;;;;;;;;;;;;;;2204708;59;1334;-69
2022/02/24 01:32:08;;;;;;;;;;;;;;;;;;2204566;59;1286;-69
2022/02/24 01:34:41;;;;;;;;;;;;;;;;;;2205161;59;1239;-69
2022/02/24 01:37:17;;;;;;;;;;;;;;;;;;2203667;59;1816;-69
2022/02/24 01:39:50;;;;;;;;;;;;;;;;;;2205935;67;1123;-69
2022/02/24 01:42:24;;;;;;;;;;;;;;;;;;2204985;59;1052;-69
2022/02/24 01:44:57;;;;;;;;;;;;;;;;;;2204210;67;1934;-69
2022/02/24 01:47:30;;;;;;;;;;;;;;;;;;2203479;59;1375;-69
2022/02/24 01:50:03;;;;;;;;;;;;;;;;;;2204810;59;1684;-69
2022/02/24 01:52:41;;;;;;;;;;;;;;;;;;2203524;59;1118;-69
2022/02/24 01:55:14;;;;;;;;;;;;;;;;;;2204244;67;1078;-69
2022/02/24 01:57:48;;;;;;;;;;;;;;;;;;2203612;59;1677;-69
2022/02/24 02:00:22;;;;;;;;;;;;;;;;;;2204260;67;1113;-69
2022/02/24 02:02:55;;;;;;;;;;;;;;;;;;2203433;59;1124;-69
2022/02/24 02:05:30;;;;;;;;;;;;;;;;;;2204763;59;1937;-69
2022/02/24 02:08:07;;;;;;;;;;;;;;;;;;2205096;67;1209;-69
2022/02/24 02:10:40;;;;;;;;;;;;;;;;;;2202106;59;1163;-69
2022/02/24 02:13:14;;;;;;;;;;;;;;;;;;2203081;59;1645;-69
2022/02/24 02:15:47;;;;;;;;;;;;;;;;;;2204586;59;1273;-69
2022/02/24 02:18:20;;;;;;;;;;;;;;;;;;2202859;59;1872;-69
2022/02/24 02:20:56;;;;;;;;;;;;;;;;;;2204016;67;1170;-69
2022/02/24 02:23:29;;;;;;;;;;;;;;;;;;2204449;59;1281;-69
2022/02/24 02:26:02;;;;;;;;;;;;;;;;;;2204598;59;1985;-69
2022/02/24 02:28:37;;;;;;;;;;;;;;;;;;2205507;59;1104;-69
2022/02/24 02:31:10;;;;;;;;;;;;;;;;;;2204268;59;1182;-69
2022/02/24 02:33:43;;;;;;;;;;;;;;;;;;2204863;59;1123;-69
2022/02/24 02:36:19;;;;;;;;;;;;;;;;;;2204718;59;1819;-69
2022/02/24 02:38:52;;;;;;;;;;;;;;;;;;2203203;67;1126;-69
2022/02/24 02:41:30;;;;;;;;;;;;;;;;;;2205045;67;1118;-69
2022/02/24 02:44:03;;;;;;;;;;;;;;;;;;2204052;67;1914;-69
2022/02/24 02:46:36;;;;;;;;;;;;;;;;;;2203363;59;1936;-69
2022/02/24 02:49:09;;;;;;;;;;;;;;;;;;2203949;59;1494;-69
2022/02/24 02:51:45;;;;;;;;;;;;;;;;;;2204601;59;1259;-69
2022/02/24 02:54:18;;;;;;;;;;;;;;;;;;2203661;59;1270;-69
2022/02/24 02:56:52;;;;;;;;;;;;;;;;;;2204550;59;1747;-69
2022/02/24 02:59:25;;;;;;;;;;;;;;;;;;2203824;59;1092;-69
2022/02/24 03:01:59;;;;;;;;;;;;;;;;;;2201300;59;1494;-69
2022/02/24 03:04:32;;;;;;;;;;;;;;;;;;2204817;67;1192;-69
2022/02/24 03:07:08;;;;;;;;;;;;;;;;;;2204653;67;2007;-69
2022/02/24 03:09:41;;;;;;;;;;;;;;;;;;2203865;59;1433;-70
2022/02/24 03:12:14;;;;;;;;;;;;;;;;;;2202820;59;1575;-69
2022/02/24 03:14:47;;;;;;;;;;;;;;;;;;2200014;59;1497;-69
2022/02/24 03:17:22;;;;;;;;;;;;;;;;;;2203803;59;1678;-69
2022/02/24 03:19:55;;;;;;;;;;;;;;;;;;2203301;59;1216;-69
2022/02/24 03:22:31;;;;;;;;;;;;;;;;;;2204892;59;1331;-69
2022/02/24 03:25:04;;;;;;;;;;;;;;;;;;2204509;59;1234;-69
2022/02/24 03:27:37;;;;;;;;;;;;;;;;;;2204423;59;1410;-69
2022/02/24 03:30:11;;;;;;;;;;;;;;;;;;2204911;59;1115;-69
2022/02/24 03:32:46;;;;;;;;;;;;;;;;;;2205283;59;1379;-69
2022/02/24 03:35:19;;;;;;;;;;;;;;;;;;2204668;59;1143;-69
2022/02/24 03:37:55;;;;;;;;;;;;;;;;;;2203543;59;1583;-69
2022/02/24 03:40:29;;;;;;;;;;;;;;;;;;2204430;67;1208;-69
2022/02/24 03:43:02;;;;;;;;;;;;;;;;;;2203442;59;1164;-68
2022/02/24 03:45:35;;;;;;;;;;;;;;;;;;2204484;59;1987;-69
2022/02/24 03:48:08;;;;;;;;;;;;;;;;;;2204187;59;1531;-69
2022/02/24 03:50:41;;;;;;;;;;;;;;;;;;2205353;67;1171;-69
2022/02/24 03:53:17;;;;;;;;;;;;;;;;;;2204710;59;1068;-69
2022/02/24 03:55:50;;;;;;;;;;;;;;;;;;2205103;67;1217;-69
2022/02/24 03:58:23;;;;;;;;;;;;;;;;;;2203109;59;1924;-69
2022/02/24 04:00:56;;;;;;;;;;;;;;;;;;2205036;59;1144;-69
2022/02/24 04:03:30;;;;;;;;;;;;;;;;;;2204752;67;1224;-70
2022/02/24 04:06:03;;;;;;;;;;;;;;;;;;2204468;67;1943;-69
2022/02/24 04:08:39;;;;;;;;;;;;;;;;;;2205779;67;1197;-69
2022/02/24 04:11:12;;;;;;;;;;;;;;;;;;2203146;59;1338;-69
2022/02/24 04:13:45;;;;;;;;;;;;;;;;;;2204076;59;1542;-70
2022/02/24 04:16:18;;;;;;;;;;;;;;;;;;2203861;59;1587;-69
2022/02/24 04:18:51;;;;;;;;;;;;;;;;;;2203771;67;1030;-69
2022/02/24 04:21:24;;;;;;;;;;;;;;;;;;2204825;59;1428;-69
2022/02/24 04:24:00;;;;;;;;;;;;;;;;;;2203802;67;1157;-69
2022/02/24 04:26:33;;;;;;;;;;;;;;;;;;2203572;59;1994;-69
2022/02/24 04:29:06;;;;;;;;;;;;;;;;;;2203906;59;1149;-69
2022/02/24 04:31:39;;;;;;;;;;;;;;;;;;2202990;59;1130;-69
2022/02/24 04:34:13;;;;;;;;;;;;;;;;;;2202503;59;1129;-69
2022/02/24 04:36:46;;;;;;;;;;;;;;;;;;2203560;59;1799;-69
2022/02/24 04:39:22;;;;;;;;;;;;;;;;;;2204571;59;1101;-69
2022/02/24 04:41:55;;;;;;;;;;;;;;;;;;2204679;59;1372;-69
2022/02/24 04:44:28;;;;;;;;;;;;;;;;;;2204460;67;1144;-69
2022/02/24 04:47:01;;;;;;;;;;;;;;;;;;2203854;59;1927;-68
2022/02/24 04:49:34;;;;;;;;;;;;;;;;;;2204281;59;1519;-69
2022/02/24 04:52:08;;;;;;;;;;;;;;;;;;2203689;59;1177;-69
2022/02/24 04:54:44;;;;;;;;;;;;;;;;;;2203664;67;1085;-69
2022/02/24 04:57:17;;;;;;;;;;;;;;;;;;2203247;59;1618;-69
2022/02/24 04:59:50;;;;;;;;;;;;;;;;;;2204619;67;1075;-69
2022/02/24 05:02:23;;;;;;;;;;;;;;;;;;2204207;67;1179;-69
2022/02/24 05:04:56;;;;;;;;;;;;;;;;;;2204430;67;1128;-69
2022/02/24 05:07:29;;;;;;;;;;;;;;;;;;2203970;59;1926;-69
2022/02/24 05:10:07;;;;;;;;;;;;;;;;;;2203809;60;1371;-69
2022/02/24 05:12:40;;;;;;;;;;;;;;;;;;2203014;59;1554;-69
2022/02/24 05:15:13;;;;;;;;;;;;;;;;;;2204041;67;1115;-69
2022/02/24 05:17:46;;;;;;;;;;;;;;;;;;2203653;59;1830;-70
2022/02/24 05:20:19;;;;;;;;;;;;;;;;;;2204304;67;1090;-69
2022/02/24 05:22:52;;;;;;;;;;;;;;;;;;2203885;59;1443;-69
2022/02/24 05:25:30;;;;;;;;;;;;;;;;;;2203944;59;1306;-69
2022/02/24 05:28:06;;;;;;;;;;;;;;;;;;2204471;59;1938;-69
2022/02/24 05:30:40;;;;;;;;;;;;;;;;;;2204120;67;1155;-69
2022/02/24 05:33:15;;;;;;;;;;;;;;;;;;2204189;67;1066;-69
2022/02/24 05:35:48;;;;;;;;;;;;;;;;;;2204484;67;1124;-69
2022/02/24 05:38:22;;;;;;;;;;;;;;;;;;2199214;59;1873;-69
2022/02/24 05:40:58;;;;;;;;;;;;;;;;;;2202867;67;1060;-69
2022/02/24 05:43:31;;;;;;;;;;;;;;;;;;2203296;59;1292;-69
2022/02/24 05:46:04;;;;;;;;;;;;;;;;;;2204364;59;1942;-69
2022/02/24 05:48:38;;;;;;;;;;;;;;;;;;2202582;59;1646;-69
2022/02/24 05:51:11;;;;;;;;;;;;;;;;;;2202488;67;1257;-69
2022/02/24 05:53:44;;;;;;;;;;;;;;;;;;2199256;59;1192;-69
2022/02/24 05:56:20;;;;;;;;;;;;;;;;;;2203894;59;1579;-69
2022/02/24 05:58:53;;;;;;;;;;;;;;;;;;2202429;59;1722;-69
2022/02/24 06:01:26;;;;;;;;;;;;;;;;;;2202791;67;1125;-69
2022/02/24 06:03:59;;;;;;;;;;;;;;;;;;2202595;67;1102;-69
2022/02/24 06:06:33;;;;;;;;;;;;;;;;;;2203324;59;1924;-69
2022/02/24 06:09:06;;;;;;;;;;;;;;;;;;2204264;67;1166;-69
2022/02/24 06:11:42;;;;;;;;;;;;;;;;;;2202489;59;1678;-69
2022/02/24 06:14:15;;;;;;;;;;;;;;;;;;2202567;59;1201;-69
2022/02/24 06:16:48;;;;;;;;;;;;;;;;;;2202948;59;1677;-69
2022/02/24 06:19:21;;;;;;;;;;;;;;;;;;2204361;67;1220;-69
2022/02/24 06:21:55;;;;;;;;;;;;;;;;;;2204053;59;1408;-69
2022/02/24 06:24:28;;;;;;;;;;;;;;;;;;2204826;59;2424;-69
2022/02/24 06:27:04;;;;;;;;;;;;;;;;;;2204412;59;1932;-69
2022/02/24 06:29:37;;;;;;;;;;;;;;;;;;2202935;59;1808;-68
2022/02/24 06:32:10;;;;;;;;;;;;;;;;;;2201681;59;1828;-69
2022/02/24 06:34:43;;;;;;;;;;;;;;;;;;2202416;67;1187;-69
2022/02/24 06:37:16;;;;;;;;;;;;;;;;;;2203534;59;1731;-69
2022/02/24 06:39:50;;;;;;;;;;;;;;;;;;2204007;59;1295;-69
2022/02/24 06:42:25;;;;;;;;;;;;;;;;;;2203947;67;1136;-69
2022/02/24 06:44:58;;;;;;;;;;;;;;;;;;2203621;59;1180;-69
2022/02/24 06:47:32;;;;;;;;;;;;;;;;;;2202131;59;1937;-69
2022/02/24 06:50:05;;;;;;;;;;;;;;;;;;2203494;59;1573;-69
2022/02/24 06:52:38;;;;;;;;;;;;;;;;;;2204686;67;1184;-69
2022/02/24 06:55:13;;;;;;;;;;;;;;;;;;2203842;59;1219;-69
2022/02/24 06:57:51;;;;;;;;;;;;;;;;;;2203179;59;1791;-69
2022/02/24 07:00:25;;;;;;;;;;;;;;;;;;2203896;67;1079;-69
2022/02/24 07:02:58;;;;;;;;;;;;;;;;;;2204326;67;1141;-69
2022/02/24 07:05:31;;;;;;;;;;;;;;;;;;2204489;59;1406;-69
2022/02/24 07:08:04;;;;;;;;;;;;;;;;;;2205002;67;1932;-69
2022/02/24 07:10:38;;;;;;;;;;;;;;;;;;2202844;59;1331;-70
2022/02/24 07:13:14;;;;;;;;;;;;;;;;;;2203167;59;1462;-69
2022/02/24 07:15:47;;;;;;;;;;;;;;;;;;2203995;67;1268;-69
2022/02/24 07:18:20;;;;;;;;;;;;;;;;;;2199152;53;1958;-69
2022/02/24 07:20:54;;;;;;;;;;;;;;;;;;2191169;59;1208;-69
2022/02/24 07:23:27;;;;;;;;;;;;;;;;;;2193574;59;1443;-69
2022/02/24 07:26:01;;;;;;;;;;;;;;;;;;2193761;59;1217;-70
2022/02/24 07:28:37;;;;;;;;;;;;;;;;;;2193150;59;1937;-69
2022/02/24 07:31:12;;;;;;;;;;;;;;;;;;2192704;59;1221;-69
2022/02/24 07:33:45;;;;;;;;;;;;;;;;;;2193125;59;1154;-69
2022/02/24 07:36:18;;;;;;;;;;;;;;;;;;2193640;59;1097;-70
2022/02/24 07:38:52;;;;;;;;;;;;;;;;;;2193449;59;1564;-69
2022/02/24 07:41:25;;;;;;;;;;;;;;;;;;2192912;67;1156;-69
2022/02/24 07:44:01;;;;;;;;;;;;;;;;;;2191194;59;1409;-70
2022/02/24 07:46:34;;;;;;;;;;;;;;;;;;2191458;59;1260;-69
2022/02/24 07:49:07;;;;;;;;;;;;;;;;;;2192896;67;1411;-69
2022/02/24 07:51:43;;;;;;;;;;;;;;;;;;2192373;59;1275;-69
2022/02/24 07:54:16;;;;;;;;;;;;;;;;;;2191524;67;1092;-70
2022/02/24 07:56:50;;;;;;;;;;;;;;;;;;2192286;59;2059;-70
2022/02/24 07:59:26;;;;;;;;;;;;;;;;;;2191748;67;1127;-69
2022/02/24 08:01:59;;;;;;;;;;;;;;;;;;2192590;67;1132;-69
2022/02/24 08:04:32;;;;;;;;;;;;;;;;;;2192980;67;1113;-69
2022/02/24 08:07:05;;;;;;;;;;;;;;;;;;2193679;60;1989;-69
2022/02/24 08:09:39;;;;;;;;;;;;;;;;;;2192101;59;1489;-69
2022/02/24 08:15:03;;;;;;;;;;;;;;;;;;2192586;67;1136;-69
2022/02/24 08:17:36;;;;;;;;;;;;;;;;;;2190308;59;1614;-70
2022/02/24 08:20:11;;;;;;;;;;;;;;;;;;2192116;67;1216;-70
2022/02/24 08:22:44;;;;;;;;;;;;;;;;;;2194020;59;1365;-69
2022/02/24 08:25:19;;;;;;;;;;;;;;;;;;2192202;59;1271;-69
2022/02/24 08:27:54;;;;;;;;;;;;;;;;;;2192589;67;1936;-69
2022/02/24 08:30:30;;;;;;;;;;;;;;;;;;2194205;67;1136;-69
2022/02/24 08:33:03;;;;;;;;;;;;;;;;;;2194522;67;1125;-69
2022/02/24 08:35:36;;;;;;;;;;;;;;;;;;2193715;67;1189;-70
2022/02/24 08:38:10;;;;;;;;;;;;;;;;;;2193100;59;1745;-70
2022/02/24 08:40:43;;;;;;;;;;;;;;;;;;2194198;67;1194;-69
2022/02/24 08:43:16;;;;;;;;;;;;;;;;;;2193544;59;1134;-70
2022/02/24 08:45:52;;;;;;;;;;;;;;;;;;2194448;59;1339;-70
2022/02/24 08:48:25;;;;;;;;;;;;;;;;;;2194039;59;1981;-69
2022/02/24 08:50:58;;;;;;;;;;;;;;;;;;2194579;67;1097;-70
2022/02/24 08:53:31;;;;;;;;;;;;;;;;;;2193857;59;1162;-70
2022/02/24 08:56:04;;;;;;;;;;;;;;;;;;2193122;67;1092;-70
2022/02/24 08:58:37;;;;;;;;;;;;;;;;;;2192351;59;2238;-70
2022/02/24 09:01:13;;;;;;;;;;;;;;;;;;2192911;59;1619;-70
2022/02/24 09:03:46;;;;;;;;;;;;;;;;;;2193184;59;1112;-70
2022/02/24 09:06:19;;;;;;;;;;;;;;;;;;2194355;67;1287;-70
2022/02/24 09:08:53;;;;;;;;;;;;;;;;;;2191995;59;1943;-70
2022/02/24 09:11:26;;;;;;;;;;;;;;;;;;2192795;59;1846;-70
2022/02/24 09:13:59;;;;;;;;;;;;;;;;;;2193342;59;1657;-70
2022/02/24 09:16:35;;;;;;;;;;;;;;;;;;2193300;59;1744;-70
2022/02/24 09:19:08;;;;;;;;;;;;;;;;;;2194987;59;1826;-70
2022/02/24 09:21:42;;;;;;;;;;;;;;;;;;2192613;59;1841;-69
2022/02/24 09:24:16;;;;;;;;;;;;;;;;;;2192285;59;1606;-70
2022/02/24 09:26:49;;;;;;;;;;;;;;;;;;2192421;59;1259;-70
2022/02/24 09:29:22;;;;;;;;;;;;;;;;;;2191673;67;1997;-70
2022/02/24 09:31:58;;;;;;;;;;;;;;;;;;2193931;67;1210;-70
2022/02/24 09:34:31;;;;;;;;;;;;;;;;;;2192861;59;1203;-70
2022/02/24 09:37:05;;;;;;;;;;;;;;;;;;2193866;59;1787;-70
2022/02/24 09:39:38;;;;;;;;;;;;;;;;;;2192723;59;1283;-70
2022/02/24 09:42:11;;;;;;;;;;;;;;;;;;2194108;67;1056;-70
2022/02/24 09:44:44;;;;;;;;;;;;;;;;;;2194473;59;1729;-70
2022/02/24 09:47:20;;;;;;;;;;;;;;;;;;2193738;59;1988;-70
2022/02/24 09:49:55;;;;;;;;;;;;;;;;;;2193831;59;1449;-70
2022/02/24 09:52:28;;;;;;;;;;;;;;;;;;2193668;67;1241;-71
2022/02/24 09:55:01;;;;;;;;;;;;;;;;;;2193795;59;1223;-70
2022/02/24 09:57:34;;;;;;;;;;;;;;;;;;2192956;59;1679;-70
2022/02/24 10:00:08;;;;;;;;;;;;;;;;;;2194277;59;1717;-70
2022/02/24 10:02:44;;;;;;;;;;;;;;;;;;2194424;59;1120;-70
2022/02/24 10:05:18;;;;;;;;;;;;;;;;;;2192962;67;1244;-70
2022/02/24 10:07:52;;;;;;;;;;;;;;;;;;2192586;67;1988;-70
2022/02/24 10:10:26;;;;;;;;;;;;;;;;;;2193472;59;1752;-70
2022/02/24 10:13:04;;;;;;;;;;;;;;;;;;2192945;59;1533;-70
2022/02/24 10:15:38;;;;;;;;;;;;;;;;;;2193795;59;1313;-70
2022/02/24 10:18:18;;;;;;;;;;;;;;;;;;2193394;59;1606;-70
2022/02/24 10:20:52;;;;;;;;;;;;;;;;;;2192939;59;1194;-70
2022/02/24 10:23:33;;;;;;;;;;;;;;;;;;2193955;59;1314;-70
2022/02/24 10:26:07;;;;;;;;;;;;;;;;;;2190106;59;1570;-70
2022/02/24 10:28:42;;;;;;;;;;;;;;;;;;2192034;67;1983;-70
2022/02/24 10:31:16;;;;;;;;;;;;;;;;;;2191469;59;1125;-70
2022/02/24 10:33:52;;;;;;;;;;;;;;;;;;2190272;59;1286;-70
2022/02/24 10:36:26;;;;;;;;;;;;;;;;;;2188453;59;2524;-70
2022/02/24 10:39:01;;;;;;;;;;;;;;;;;;2189583;59;2654;-70
2022/02/24 10:41:35;;;;;;;;;;;;;;;;;;2189991;59;2189;-70
2022/02/24 10:44:15;;;;;;;;;;;;;;;;;;2192531;67;2451;-70
2022/02/24 10:46:49;;;;;;;;;;;;;;;;;;2186025;59;1872;-71
2022/02/24 10:49:36;;;;;;;;;;;;;;;;;;2186231;59;1932;-71
2022/02/24 10:52:16;;;;;;;;;;;;;;;;;;2187248;59;1706;-70
2022/02/24 10:54:57;;;;;;;;;;;;;;;;;;2191517;59;1085;-70
2022/02/24 10:57:32;;;;;;;;;;;;;;;;;;2191602;59;1798;-70
2022/02/24 11:00:06;;;;;;;;;;;;;;;;;;2192963;59;1190;-70
2022/02/24 11:02:39;;;;;;;;;;;;;;;;;;2192178;59;1761;-71
2022/02/24 11:05:15;;;;;;;;;;;;;;;;;;2191713;59;2037;-70
2022/02/24 11:07:48;;;;;;;;;;;;;;;;;;2192985;59;1979;-70
2022/02/24 11:10:21;;;;;;;;;;;;;;;;;;2192899;59;1361;-70
2022/02/24 11:12:54;;;;;;;;;;;;;;;;;;2192628;59;1521;-70
2022/02/24 11:15:28;;;;;;;;;;;;;;;;;;2191745;67;1192;-70
2022/02/24 11:18:01;;;;;;;;;;;;;;;;;;2193247;59;1604;-70
2022/02/24 11:20:38;;;;;;;;;;;;;;;;;;2191956;67;1329;-70
2022/02/24 11:23:11;;;;;;;;;;;;;;;;;;2193325;59;1459;-70
2022/02/24 11:25:48;;;;;;;;;;;;;;;;;;2192434;59;1536;-70
2022/02/24 11:28:24;;;;;;;;;;;;;;;;;;2192761;59;1985;-69
2022/02/24 11:30:59;;;;;;;;;;;;;;;;;;2193034;67;1070;-70
2022/02/24 11:33:32;;;;;;;;;;;;;;;;;;2192241;67;1153;-70
2022/02/24 11:36:14;;;;;;;;;;;;;;;;;;2192779;59;2634;-70
2022/02/24 11:39:02;;;;;;;;;;;;;;;;;;2191764;59;2647;-70
2022/02/24 11:41:35;;;;;;;;;;;;;;;;;;2191758;59;1920;-70
2022/02/24 11:44:08;;;;;;;;;;;;;;;;;;2196325;59;1289;-69
2022/02/24 11:46:56;;;;;;;;;;;;;;;;;;2193504;59;1322;-69
2022/02/24 11:49:44;;;;;;;;;;;;;;;;;;2193188;59;1935;-69
2022/02/24 11:52:27;;;;;;;;;;;;;;;;;;2194332;59;1203;-70
2022/02/24 11:55:02;;;;;;;;;;;;;;;;;;2192785;67;1112;-70
2022/02/24 11:57:36;;;;;;;;;;;;;;;;;;2192964;59;1779;-69
2022/02/24 12:00:15;;;;;;;;;;;;;;;;;;2192964;59;1255;-69
2022/02/24 12:02:49;;;;;;;;;;;;;;;;;;2192785;67;1128;-69
2022/02/24 12:05:29;;;;;;;;;;;;;;;;;;2193455;67;1195;-70
2022/02/24 12:08:07;;;;;;;;;;;;;;;;;;2192635;59;1149;-70
2022/02/24 12:10:41;;;;;;;;;;;;;;;;;;2192441;59;1656;-70
2022/02/24 12:13:31;;;;;;;;;;;;;;;;;;2193357;59;1758;-70
2022/02/24 12:16:15;;;;;;;;;;;;;;;;;;2193198;59;1391;-70
2022/02/24 12:18:49;;;;;;;;;;;;;;;;;;2192579;59;2092;-70
2022/02/24 12:21:29;;;;;;;;;;;;;;;;;;2192250;59;1756;-70
2022/02/24 12:24:06;;;;;;;;;;;;;;;;;;2192946;67;997;-70
2022/02/24 12:26:40;;;;;;;;;;;;;;;;;;2194047;67;1932;-70
2022/02/24 12:29:20;;;;;;;;;;;;;;;;;;2192788;60;1924;-70
2022/02/24 12:31:57;;;;;;;;;;;;;;;;;;2192009;67;1101;-69
2022/02/24 12:34:31;;;;;;;;;;;;;;;;;;2192760;59;1223;-70
2022/02/24 12:37:07;;;;;;;;;;;;;;;;;;2192239;59;2488;-70
2022/02/24 12:39:44;;;;;;;;;;;;;;;;;;2194753;59;2305;-70
2022/02/24 12:42:17;;;;;;;;;;;;;;;;;;2191256;67;1181;-70
2022/02/24 12:44:50;;;;;;;;;;;;;;;;;;2192924;59;1815;-70
2022/02/24 12:47:23;;;;;;;;;;;;;;;;;;2193831;59;1200;-70
2022/02/24 12:49:57;;;;;;;;;;;;;;;;;;2192933;59;1945;-70
2022/02/24 12:52:31;;;;;;;;;;;;;;;;;;2193403;67;1223;-70
2022/02/24 12:55:07;;;;;;;;;;;;;;;;;;2193426;59;1426;-70
2022/02/24 12:57:40;;;;;;;;;;;;;;;;;;2191679;59;1636;-70
2022/02/24 13:00:14;;;;;;;;;;;;;;;;;;2194310;67;1095;-70
2022/02/24 13:02:47;;;;;;;;;;;;;;;;;;2193304;59;2070;-69
2022/02/24 13:05:23;;;;;;;;;;;;;;;;;;2194266;59;1246;-70
2022/02/24 13:10:48;;;;;;;;;;;;;;;;;;2191136;59;2081;-69
2022/02/24 13:13:24;;;;;;;;;;;;;;;;;;2193381;59;1790;-70
2022/02/24 13:16:00;;;;;;;;;;;;;;;;;;2194578;59;1373;-69
2022/02/24 13:18:38;;;;;;;;;;;;;;;;;;2206352;54;1837;-70
2022/02/24 13:21:12;;;;;;;;;;;;;;;;;;2205813;59;1399;-70
2022/02/24 13:23:46;;;;;;;;;;;;;;;;;;2206715;59;1705;-70
2022/02/24 13:26:31;;;;;;;;;;;;;;;;;;2206668;59;1737;-70
2022/02/24 13:29:07;;;;;;;;;;;;;;;;;;2204634;67;1989;-70
2022/02/24 13:31:40;;;;;;;;;;;;;;;;;;2204259;67;1104;-70
2022/02/24 13:34:14;;;;;;;;;;;;;;;;;;2202968;59;1246;-70
2022/02/24 13:36:49;;;;;;;;;;;;;;;;;;2202158;59;1336;-70
2022/02/24 13:39:32;;;;;;;;;;;;;;;;;;2201918;59;2206;-70
2022/02/24 13:42:08;;;;;;;;;;;;;;;;;;2201994;59;2294;-70
2022/02/24 13:44:42;;;;;;;;;;;;;;;;;;2203141;59;1378;-70
2022/02/24 13:47:16;;;;;;;;;;;;;;;;;;2203170;67;1153;-71
2022/02/24 13:49:50;;;;;;;;;;;;;;;;;;2203051;59;1928;-71
2022/02/24 13:52:28;;;;;;;;;;;;;;;;;;2200982;59;1190;-71
2022/02/24 13:55:02;;;;;;;;;;;;;;;;;;2202027;59;1489;-71
2022/02/24 13:57:51;;;;;;;;;;;;;;;;;;2202324;59;2335;-70
2022/02/24 14:00:27;;;;;;;;;;;;;;;;;;2204259;59;1782;-70
2022/02/24 14:03:01;;;;;;;;;;;;;;;;;;2201867;59;1085;-70
2022/02/24 14:05:34;;;;;;;;;;;;;;;;;;2202282;67;1296;-70
2022/02/24 14:08:07;;;;;;;;;;;;;;;;;;2202275;59;1242;-71
2022/02/24 14:10:40;;;;;;;;;;;;;;;;;;2200404;59;1932;-70
2022/02/24 14:13:16;;;;;;;;;;;;;;;;;;2201155;59;1501;-70
2022/02/24 14:15:49;;;;;;;;;;;;;;;;;;2199345;59;1426;-70
2022/02/24 14:18:22;;;;;;;;;;;;;;;;;;2201891;59;1717;-71
2022/02/24 14:20:56;;;;;;;;;;;;;;;;;;2199738;67;1031;-71
2022/02/24 14:23:29;;;;;;;;;;;;;;;;;;2202254;59;1268;-71
2022/02/24 14:26:02;;;;;;;;;;;;;;;;;;2198819;59;1256;-71
2022/02/24 14:28:39;;;;;;;;;;;;;;;;;;2201258;67;1219;-71
2022/02/24 14:31:12;;;;;;;;;;;;;;;;;;2201956;59;1939;-71
2022/02/24 14:33:46;;;;;;;;;;;;;;;;;;2202177;67;1227;-71
2022/02/24 14:36:19;;;;;;;;;;;;;;;;;;2202284;59;1176;-71
2022/02/24 14:38:52;;;;;;;;;;;;;;;;;;2201752;59;2169;-70
2022/02/24 14:41:25;;;;;;;;;;;;;;;;;;2200385;59;2267;-71
2022/02/24 14:44:02;;;;;;;;;;;;;;;;;;2202573;67;1064;-71
2022/02/24 14:46:35;;;;;;;;;;;;;;;;;;2202827;59;1290;-71
2022/02/24 14:49:09;;;;;;;;;;;;;;;;;;2203011;59;1995;-71
2022/02/24 14:51:42;;;;;;;;;;;;;;;;;;2203533;59;1143;-70
2022/02/24 14:54:17;;;;;;;;;;;;;;;;;;2202856;67;1097;-71
2022/02/24 14:56:50;;;;;;;;;;;;;;;;;;2203366;67;1206;-70
2022/02/24 14:59:26;;;;;;;;;;;;;;;;;;2202851;59;1865;-70
2022/02/24 15:02:00;;;;;;;;;;;;;;;;;;2203062;67;1056;-70
2022/02/24 15:04:33;;;;;;;;;;;;;;;;;;2201440;59;1697;-70
2022/02/24 15:07:07;;;;;;;;;;;;;;;;;;2203888;59;1171;-70
2022/02/24 15:09:40;;;;;;;;;;;;;;;;;;2204230;59;1929;-70
2022/02/24 15:12:13;;;;;;;;;;;;;;;;;;2202505;59;1718;-70
2022/02/24 15:14:49;;;;;;;;;;;;;;;;;;2202832;59;1366;-70
2022/02/24 15:17:22;;;;;;;;;;;;;;;;;;2202111;59;1585;-70
2022/02/24 15:19:55;;;;;;;;;;;;;;;;;;2202367;67;1003;-70
2022/02/24 15:22:29;;;;;;;;;;;;;;;;;;2203003;59;1398;-70
2022/02/24 15:25:02;;;;;;;;;;;;;;;;;;2202680;59;1657;-70
2022/02/24 15:27:36;;;;;;;;;;;;;;;;;;2202583;59;1214;-70
2022/02/24 15:30:13;;;;;;;;;;;;;;;;;;2204669;67;1939;-70
2022/02/24 15:32:46;;;;;;;;;;;;;;;;;;2202485;67;1275;-70
2022/02/24 15:35:21;;;;;;;;;;;;;;;;;;2202811;67;1089;-70
2022/02/24 15:37:54;;;;;;;;;;;;;;;;;;2202736;59;1776;-70
2022/02/24 15:40:28;;;;;;;;;;;;;;;;;;2202017;67;2520;-70
2022/02/24 15:43:02;;;;;;;;;;;;;;;;;;2201461;59;2179;-70
2022/02/24 15:45:38;;;;;;;;;;;;;;;;;;2202376;59;1342;-70
2022/02/24 15:48:11;;;;;;;;;;;;;;;;;;2202374;59;1317;-71
2022/02/24 15:50:45;;;;;;;;;;;;;;;;;;2202643;59;1925;-70
2022/02/24 15:53:18;;;;;;;;;;;;;;;;;;2198404;59;1520;-70
2022/02/24 15:56:10;;;;;;;;;;;;;;;;;;2199660;59;935;-70
2022/02/24 15:59:05;;;;;;;;;;;;;;;;;;2199617;59;2437;-70
2022/02/24 16:02:01;;;;;;;;;;;;;;;;;;2201558;59;1575;-70
2022/02/24 16:04:55;;;;;;;;;;;;;;;;;;2201109;59;1682;-70
2022/02/24 16:07:53;;;;;;;;;;;;;;;;;;2201949;59;1696;-70
2022/02/24 16:10:47;;;;;;;;;;;;;;;;;;2202275;59;1933;-70
2022/02/24 16:13:42;;;;;;;;;;;;;;;;;;2201158;59;1505;-70
2022/02/24 16:16:36;;;;;;;;;;;;;;;;;;2201439;59;1389;-70
2022/02/24 16:19:32;;;;;;;;;;;;;;;;;;2202429;59;1407;-70
2022/02/24 16:22:27;;;;;;;;;;;;;;;;;;2203021;59;1006;-70
2022/02/24 16:25:20;;;;;;;;;;;;;;;;;;2203132;59;1384;-70
2022/02/24 16:28:16;;;;;;;;;;;;;;;;;;2201301;59;1262;-71
2022/02/24 16:31:24;;;;;;;;;;;;;;;;;;2201307;59;1894;-70
2022/02/24 16:34:19;;;;;;;;;;;;;;;;;;2202195;59;981;-70
2022/02/24 16:37:16;;;;;;;;;;;;;;;;;;2203423;59;1709;-70
2022/02/24 17:26:33;;;;;;;;;;;;;;;;;;2183508;59;1814;-71
2022/02/24 17:29:25;;;;;;;;;;;;;;;;;;2189641;59;1459;-70
2022/02/24 17:32:17;;;;;;;;;;;;;;;;;;2192702;59;1928;-70
2022/02/24 17:35:09;;;;;;;;;;;;;;;;;;2190396;59;1926;-69
2022/02/24 17:38:01;;;;;;;;;;;;;;;;;;2198195;53;3561;-71
2022/02/24 17:40:53;;;;;;;;;;;;;;;;;;2213032;59;2655;-70
2022/02/24 17:43:48;;;;;;;;;;;;;;;;;;2213265;59;1782;-71
2022/02/24 17:46:40;;;;;;;;;;;;;;;;;;2209764;59;1852;-71
2022/02/24 17:49:36;;;;;;;;;;;;;;;;;;2213396;59;1319;-71
2022/02/24 17:52:35;;;;;;;;;;;;;;;;;;2211061;59;1222;-71
2022/02/24 17:55:28;;;;;;;;;;;;;;;;;;2207112;59;1045;-71
2022/02/24 19:03:30;;;;;;;;;;;;;;;;;;2171270;59;1901;-72
2022/02/24 19:06:03;;;;;;;;;;;;;;;;;;2174639;59;1882;-72
2022/02/24 19:08:37;;;;;;;;;;;;;;;;;;2180965;59;2060;-72
2022/02/24 19:11:10;;;;;;;;;;;;;;;;;;2181799;59;2002;-72
2022/02/24 19:13:43;;;;;;;;;;;;;;;;;;2183842;59;2083;-72
2022/02/24 19:16:16;;;;;;;;;;;;;;;;;;2181694;59;2103;-72
2022/02/24 19:18:52;;;;;;;;;;;;;;;;;;2181545;59;2421;-72
2022/02/24 19:21:25;;;;;;;;;;;;;;;;;;2182237;59;1635;-73
2022/02/24 19:23:58;;;;;;;;;;;;;;;;;;2183937;59;1738;-72
2022/02/24 19:26:32;;;;;;;;;;;;;;;;;;2182783;59;2634;-72
2022/02/24 19:29:05;;;;;;;;;;;;;;;;;;2183582;59;1944;-73
2022/02/24 19:31:38;;;;;;;;;;;;;;;;;;2182936;59;1998;-72
2022/02/24 19:34:15;;;;;;;;;;;;;;;;;;2182726;59;1607;-72
2022/02/24 19:36:49;;;;;;;;;;;;;;;;;;2184623;59;1626;-73
2022/02/24 19:39:22;;;;;;;;;;;;;;;;;;2183472;59;1707;-73
2022/02/24 19:41:55;;;;;;;;;;;;;;;;;;2184314;59;1585;-73
2022/02/24 19:44:28;;;;;;;;;;;;;;;;;;2185058;67;1474;-73
2022/02/24 19:47:01;;;;;;;;;;;;;;;;;;2184653;59;1944;-73
2022/02/24 19:49:38;;;;;;;;;;;;;;;;;;2182763;59;1811;-73
2022/02/24 19:52:11;;;;;;;;;;;;;;;;;;2182129;59;1975;-73
2022/02/24 19:54:44;;;;;;;;;;;;;;;;;;2179947;59;1684;-72
2022/02/24 19:57:17;;;;;;;;;;;;;;;;;;2184638;67;1575;-72
2022/02/24 19:59:50;;;;;;;;;;;;;;;;;;2185385;59;1513;-73